sensor_id;sensor_type;location;lat;lon;timestamp;pressure;altitude;pressure_sealevel;temperature;humidity
58471;BME280;44258;51.288;12.068;2022-12-07T00:01:17;100357.25;;;3.30;69.65
58471;BME280;44258;51.288;12.068;2022-12-07T00:03:45;100359.84;;;3.32;69.37
58471;BME280;44258;51.288;12.068;2022-12-07T00:06:14;100365.31;;;3.27;69.42
58471;BME280;44258;51.288;12.068;2022-12-07T00:08:41;100356.59;;;3.22;69.15
58471;BME280;44258;51.288;12.068;2022-12-07T00:11:10;100346.22;;;3.11;69.32
58471;BME280;44258;51.288;12.068;2022-12-07T00:13:38;100339.06;;;3.13;69.07
58471;BME280;44258;51.288;12.068;2022-12-07T00:16:10;100341.94;;;3.06;69.00
58471;BME280;44258;51.288;12.068;2022-12-07T00:18:39;100336.72;;;3.01;69.06
58471;BME280;44258;51.288;12.068;2022-12-07T00:21:10;100336.94;;;2.93;69.03
58471;BME280;44258;51.288;12.068;2022-12-07T00:23:38;100335.19;;;2.92;69.04
58471;BME280;44258;51.288;12.068;2022-12-07T00:26:06;100329.00;;;2.92;69.10
58471;BME280;44258;51.288;12.068;2022-12-07T00:28:33;100328.16;;;2.90;69.06
58471;BME280;44258;51.288;12.068;2022-12-07T00:31:02;100326.38;;;2.90;69.10
58471;BME280;44258;51.288;12.068;2022-12-07T00:33:29;100333.69;;;2.81;69.21
58471;BME280;44258;51.288;12.068;2022-12-07T00:35:58;100323.16;;;2.78;68.93
58471;BME280;44258;51.288;12.068;2022-12-07T00:38:27;100325.81;;;2.78;68.87
58471;BME280;44258;51.288;12.068;2022-12-07T00:40:56;100323.25;;;2.73;68.96
58471;BME280;44258;51.288;12.068;2022-12-07T00:43:23;100313.59;;;2.70;68.79
58471;BME280;44258;51.288;12.068;2022-12-07T00:45:50;100306.63;;;2.65;68.73
58471;BME280;44258;51.288;12.068;2022-12-07T00:48:16;100309.44;;;2.59;69.15
58471;BME280;44258;51.288;12.068;2022-12-07T00:50:44;100306.78;;;2.59;69.34
58471;BME280;44258;51.288;12.068;2022-12-07T00:53:12;100306.97;;;2.51;69.15
58471;BME280;44258;51.288;12.068;2022-12-07T00:55:38;100312.50;;;2.42;69.07
58471;BME280;44258;51.288;12.068;2022-12-07T00:58:05;100311.47;;;2.47;69.18
58471;BME280;44258;51.288;12.068;2022-12-07T01:00:35;100312.28;;;2.51;69.20
58471;BME280;44258;51.288;12.068;2022-12-07T01:03:02;100312.34;;;2.48;68.84
58471;BME280;44258;51.288;12.068;2022-12-07T01:05:29;100314.09;;;2.49;68.76
58471;BME280;44258;51.288;12.068;2022-12-07T01:07:56;100310.63;;;2.47;68.51
58471;BME280;44258;51.288;12.068;2022-12-07T01:10:25;100302.75;;;2.42;69.09
58471;BME280;44258;51.288;12.068;2022-12-07T01:12:52;100300.16;;;2.41;68.56
58471;BME280;44258;51.288;12.068;2022-12-07T01:15:20;100291.41;;;2.36;68.54
58471;BME280;44258;51.288;12.068;2022-12-07T01:17:46;100292.50;;;2.27;68.40
58471;BME280;44258;51.288;12.068;2022-12-07T01:20:14;100291.75;;;2.20;68.80
58471;BME280;44258;51.288;12.068;2022-12-07T01:22:42;100296.22;;;2.18;68.92
58471;BME280;44258;51.288;12.068;2022-12-07T01:25:10;100295.34;;;2.18;69.02
58471;BME280;44258;51.288;12.068;2022-12-07T01:27:39;100291.72;;;2.22;68.88
58471;BME280;44258;51.288;12.068;2022-12-07T01:30:09;100288.19;;;2.21;68.70
58471;BME280;44258;51.288;12.068;2022-12-07T01:32:36;100286.38;;;2.23;68.61
58471;BME280;44258;51.288;12.068;2022-12-07T01:35:04;100288.16;;;2.23;68.55
58471;BME280;44258;51.288;12.068;2022-12-07T01:37:34;100284.78;;;2.16;68.55
58471;BME280;44258;51.288;12.068;2022-12-07T01:40:03;100285.69;;;2.15;68.75
58471;BME280;44258;51.288;12.068;2022-12-07T01:42:30;100280.38;;;2.15;68.53
58471;BME280;44258;51.288;12.068;2022-12-07T01:45:40;100285.53;;;2.21;69.01
58471;BME280;44258;51.288;12.068;2022-12-07T01:48:08;100283.81;;;2.20;68.23
58471;BME280;44258;51.288;12.068;2022-12-07T01:50:36;100278.66;;;2.12;68.50
58471;BME280;44258;51.288;12.068;2022-12-07T01:53:06;100265.56;;;2.05;68.50
58471;BME280;44258;51.288;12.068;2022-12-07T01:55:38;100273.63;;;2.00;68.70
58471;BME280;44258;51.288;12.068;2022-12-07T01:58:06;100274.38;;;2.07;68.67
58471;BME280;44258;51.288;12.068;2022-12-07T02:00:33;100277.88;;;2.07;69.00
58471;BME280;44258;51.288;12.068;2022-12-07T02:03:04;100264.56;;;2.10;68.68
58471;BME280;44258;51.288;12.068;2022-12-07T02:05:33;100262.75;;;2.12;68.71
58471;BME280;44258;51.288;12.068;2022-12-07T02:08:01;100260.38;;;2.00;68.70
58471;BME280;44258;51.288;12.068;2022-12-07T02:10:30;100264.78;;;2.00;68.82
58471;BME280;44258;51.288;12.068;2022-12-07T02:13:00;100257.78;;;1.97;69.20
58471;BME280;44258;51.288;12.068;2022-12-07T02:15:39;100253.34;;;1.98;69.20
58471;BME280;44258;51.288;12.068;2022-12-07T02:18:12;100256.69;;;2.06;69.16
58471;BME280;44258;51.288;12.068;2022-12-07T02:20:51;100256.63;;;2.09;68.97
58471;BME280;44258;51.288;12.068;2022-12-07T02:23:39;100251.13;;;2.18;68.84
58471;BME280;44258;51.288;12.068;2022-12-07T02:29:18;100249.13;;;2.28;68.22
58471;BME280;44258;51.288;12.068;2022-12-07T02:31:53;100246.66;;;2.20;68.14
58471;BME280;44258;51.288;12.068;2022-12-07T02:34:29;100248.47;;;2.18;68.09
58471;BME280;44258;51.288;12.068;2022-12-07T02:37:00;100243.22;;;2.15;68.11
58471;BME280;44258;51.288;12.068;2022-12-07T02:39:33;100240.56;;;2.17;68.49
58471;BME280;44258;51.288;12.068;2022-12-07T02:42:10;100244.09;;;2.16;68.45
58471;BME280;44258;51.288;12.068;2022-12-07T02:44:40;100228.19;;;2.16;68.50
58471;BME280;44258;51.288;12.068;2022-12-07T02:47:12;100230.91;;;2.14;68.14
58471;BME280;44258;51.288;12.068;2022-12-07T02:49:40;100224.75;;;2.12;68.03
58471;BME280;44258;51.288;12.068;2022-12-07T02:52:08;100226.59;;;2.08;68.08
58471;BME280;44258;51.288;12.068;2022-12-07T02:54:34;100223.09;;;2.06;68.32
58471;BME280;44258;51.288;12.068;2022-12-07T02:57:07;100218.00;;;1.97;68.50
58471;BME280;44258;51.288;12.068;2022-12-07T02:59:48;100211.94;;;1.92;68.80
58471;BME280;44258;51.288;12.068;2022-12-07T03:02:25;100204.91;;;1.89;68.72
58471;BME280;44258;51.288;12.068;2022-12-07T03:05:03;100193.44;;;1.89;68.65
58471;BME280;44258;51.288;12.068;2022-12-07T03:07:39;100198.75;;;1.89;68.94
58471;BME280;44258;51.288;12.068;2022-12-07T03:10:16;100188.06;;;1.92;69.04
58471;BME280;44258;51.288;12.068;2022-12-07T03:12:50;100190.66;;;1.93;68.85
58471;BME280;44258;51.288;12.068;2022-12-07T03:15:26;100195.94;;;1.95;68.73
58471;BME280;44258;51.288;12.068;2022-12-07T03:17:57;100193.19;;;2.00;68.71
58471;BME280;44258;51.288;12.068;2022-12-07T03:20:27;100192.25;;;2.02;68.47
58471;BME280;44258;51.288;12.068;2022-12-07T03:22:56;100195.69;;;2.06;68.50
58471;BME280;44258;51.288;12.068;2022-12-07T03:25:26;100194.66;;;2.13;68.51
58471;BME280;44258;51.288;12.068;2022-12-07T03:27:55;100191.09;;;2.14;68.46
58471;BME280;44258;51.288;12.068;2022-12-07T03:30:28;100182.50;;;2.04;68.57
58471;BME280;44258;51.288;12.068;2022-12-07T03:32:59;100185.13;;;2.04;68.75
58471;BME280;44258;51.288;12.068;2022-12-07T03:35:32;100178.94;;;2.04;68.83
58471;BME280;44258;51.288;12.068;2022-12-07T03:38:04;100179.69;;;2.10;68.66
58471;BME280;44258;51.288;12.068;2022-12-07T03:40:39;100174.41;;;2.09;68.88
58471;BME280;44258;51.288;12.068;2022-12-07T03:43:08;100173.41;;;2.15;69.07
58471;BME280;44258;51.288;12.068;2022-12-07T03:45:39;100171.59;;;2.17;69.05
58471;BME280;44258;51.288;12.068;2022-12-07T03:48:09;100173.41;;;2.15;68.87
58471;BME280;44258;51.288;12.068;2022-12-07T03:50:43;100165.31;;;2.19;69.07
58471;BME280;44258;51.288;12.068;2022-12-07T03:53:19;100174.94;;;2.25;68.94
58471;BME280;44258;51.288;12.068;2022-12-07T03:55:48;100172.94;;;2.33;68.99
58471;BME280;44258;51.288;12.068;2022-12-07T03:58:17;100168.50;;;2.33;68.54
58471;BME280;44258;51.288;12.068;2022-12-07T04:00:46;100164.97;;;2.35;68.77
58471;BME280;44258;51.288;12.068;2022-12-07T04:03:14;100169.28;;;2.39;68.74
58471;BME280;44258;51.288;12.068;2022-12-07T04:05:40;100170.16;;;2.39;68.71
58471;BME280;44258;51.288;12.068;2022-12-07T04:08:08;100163.19;;;2.33;68.97
58471;BME280;44258;51.288;12.068;2022-12-07T04:10:35;100164.22;;;2.28;69.30
58471;BME280;44258;51.288;12.068;2022-12-07T04:13:04;100164.31;;;2.25;69.61
58471;BME280;44258;51.288;12.068;2022-12-07T04:15:32;100151.09;;;2.22;70.01
58471;BME280;44258;51.288;12.068;2022-12-07T04:17:59;100151.03;;;2.25;69.93
58471;BME280;44258;51.288;12.068;2022-12-07T04:20:26;100156.56;;;2.16;70.30
58471;BME280;44258;51.288;12.068;2022-12-07T04:22:56;100151.16;;;2.20;70.34
58471;BME280;44258;51.288;12.068;2022-12-07T04:25:22;100144.78;;;2.27;70.15
58471;BME280;44258;51.288;12.068;2022-12-07T04:27:49;100132.53;;;2.22;70.46
58471;BME280;44258;51.288;12.068;2022-12-07T04:30:15;100135.00;;;2.29;70.27
58471;BME280;44258;51.288;12.068;2022-12-07T04:32:43;100141.09;;;2.35;70.24
58471;BME280;44258;51.288;12.068;2022-12-07T04:35:11;100136.59;;;2.37;70.28
58471;BME280;44258;51.288;12.068;2022-12-07T04:37:38;100136.50;;;2.40;70.33
58471;BME280;44258;51.288;12.068;2022-12-07T04:40:07;100135.53;;;2.44;70.15
58471;BME280;44258;51.288;12.068;2022-12-07T04:42:36;100130.19;;;2.45;70.05
58471;BME280;44258;51.288;12.068;2022-12-07T04:45:03;100129.22;;;2.48;70.02
58471;BME280;44258;51.288;12.068;2022-12-07T04:47:30;100127.56;;;2.44;70.37
58471;BME280;44258;51.288;12.068;2022-12-07T04:49:57;100123.25;;;2.40;70.33
58471;BME280;44258;51.288;12.068;2022-12-07T04:52:25;100126.03;;;2.35;70.85
58471;BME280;44258;51.288;12.068;2022-12-07T04:54:51;100121.63;;;2.34;71.08
58471;BME280;44258;51.288;12.068;2022-12-07T04:57:18;100121.69;;;2.32;71.12
58471;BME280;44258;51.288;12.068;2022-12-07T04:59:45;100120.00;;;2.28;71.43
58471;BME280;44258;51.288;12.068;2022-12-07T05:02:11;100119.09;;;2.29;71.70
58471;BME280;44258;51.288;12.068;2022-12-07T05:04:38;100119.69;;;2.41;70.98
58471;BME280;44258;51.288;12.068;2022-12-07T05:07:05;100121.84;;;2.26;71.57
58471;BME280;44258;51.288;12.068;2022-12-07T05:09:33;100123.44;;;2.32;71.35
58471;BME280;44258;51.288;12.068;2022-12-07T05:12:00;100123.41;;;2.33;71.55
58471;BME280;44258;51.288;12.068;2022-12-07T05:14:26;100129.63;;;2.32;71.76
58471;BME280;44258;51.288;12.068;2022-12-07T05:16:53;100131.00;;;2.47;71.51
58471;BME280;44258;51.288;12.068;2022-12-07T05:19:20;100127.50;;;2.47;71.23
58471;BME280;44258;51.288;12.068;2022-12-07T05:21:46;100131.88;;;2.48;71.26
58471;BME280;44258;51.288;12.068;2022-12-07T05:24:15;100125.44;;;2.57;71.54
58471;BME280;44258;51.288;12.068;2022-12-07T05:26:44;100131.03;;;2.46;71.37
58471;BME280;44258;51.288;12.068;2022-12-07T05:29:12;100130.00;;;2.53;70.92
58471;BME280;44258;51.288;12.068;2022-12-07T05:31:39;100142.47;;;2.49;71.23
58471;BME280;44258;51.288;12.068;2022-12-07T05:34:06;100134.53;;;2.48;71.29
58471;BME280;44258;51.288;12.068;2022-12-07T05:36:33;100136.38;;;2.44;71.93
58471;BME280;44258;51.288;12.068;2022-12-07T05:39:00;100127.59;;;2.42;72.09
58471;BME280;44258;51.288;12.068;2022-12-07T05:41:27;100126.00;;;2.37;72.58
58471;BME280;44258;51.288;12.068;2022-12-07T05:44:12;100125.06;;;2.38;72.97
58471;BME280;44258;51.288;12.068;2022-12-07T05:46:39;100125.72;;;2.47;72.95
58471;BME280;44258;51.288;12.068;2022-12-07T05:49:05;100128.22;;;2.52;72.93
58471;BME280;44258;51.288;12.068;2022-12-07T05:51:33;100116.66;;;2.55;73.09
58471;BME280;44258;51.288;12.068;2022-12-07T05:53:59;100121.47;;;2.73;72.42
58471;BME280;44258;51.288;12.068;2022-12-07T05:56:26;100124.09;;;2.75;72.57
58471;BME280;44258;51.288;12.068;2022-12-07T05:58:53;100123.25;;;2.72;72.35
58471;BME280;44258;51.288;12.068;2022-12-07T06:01:39;100108.63;;;2.58;73.11
58471;BME280;44258;51.288;12.068;2022-12-07T06:04:06;100101.84;;;2.46;73.76
58471;BME280;44258;51.288;12.068;2022-12-07T06:06:33;100109.94;;;2.41;74.17
58471;BME280;44258;51.288;12.068;2022-12-07T06:08:59;100100.97;;;2.47;73.88
58471;BME280;44258;51.288;12.068;2022-12-07T06:11:26;100105.22;;;2.52;73.90
58471;BME280;44258;51.288;12.068;2022-12-07T06:14:11;100101.78;;;2.49;73.91
58471;BME280;44258;51.288;12.068;2022-12-07T06:16:39;100102.66;;;2.49;73.71
58471;BME280;44258;51.288;12.068;2022-12-07T06:19:06;100099.03;;;2.52;73.79
58471;BME280;44258;51.288;12.068;2022-12-07T06:21:35;100096.47;;;2.49;73.61
58471;BME280;44258;51.288;12.068;2022-12-07T06:24:02;100096.88;;;2.33;74.11
58471;BME280;44258;51.288;12.068;2022-12-07T06:26:29;100101.94;;;2.43;73.89
58471;BME280;44258;51.288;12.068;2022-12-07T06:28:56;100099.38;;;2.40;73.81
58471;BME280;44258;51.288;12.068;2022-12-07T06:31:22;100099.31;;;2.41;73.84
58471;BME280;44258;51.288;12.068;2022-12-07T06:33:57;100096.81;;;2.37;73.89
58471;BME280;44258;51.288;12.068;2022-12-07T06:36:23;100098.63;;;2.35;73.69
58471;BME280;44258;51.288;12.068;2022-12-07T06:38:50;100098.63;;;2.35;73.63
58471;BME280;44258;51.288;12.068;2022-12-07T06:41:17;100105.66;;;2.36;73.39
58471;BME280;44258;51.288;12.068;2022-12-07T06:43:44;100108.47;;;2.29;73.79
58471;BME280;44258;51.288;12.068;2022-12-07T06:46:10;100113.88;;;2.26;74.04
58471;BME280;44258;51.288;12.068;2022-12-07T06:48:40;100106.69;;;2.30;73.88
58471;BME280;44258;51.288;12.068;2022-12-07T06:51:09;100114.78;;;2.25;74.20
58471;BME280;44258;51.288;12.068;2022-12-07T06:53:36;100110.63;;;2.13;74.31
58471;BME280;44258;51.288;12.068;2022-12-07T06:56:04;100110.41;;;2.23;74.30
58471;BME280;44258;51.288;12.068;2022-12-07T06:58:31;100110.38;;;2.24;73.77
58471;BME280;44258;51.288;12.068;2022-12-07T07:00:58;100105.81;;;2.29;73.53
58471;BME280;44258;51.288;12.068;2022-12-07T07:03:25;100109.28;;;2.33;73.54
58471;BME280;44258;51.288;12.068;2022-12-07T07:05:51;100114.78;;;2.25;74.17
58471;BME280;44258;51.288;12.068;2022-12-07T07:08:19;100114.81;;;2.24;74.13
58471;BME280;44258;51.288;12.068;2022-12-07T07:10:46;100113.06;;;2.23;73.80
58471;BME280;44258;51.288;12.068;2022-12-07T07:13:13;100103.34;;;2.22;74.07
58471;BME280;44258;51.288;12.068;2022-12-07T07:15:39;100115.56;;;2.29;73.91
58471;BME280;44258;51.288;12.068;2022-12-07T07:18:06;100120.38;;;2.13;74.55
58471;BME280;44258;51.288;12.068;2022-12-07T07:20:33;100116.63;;;2.22;74.46
58471;BME280;44258;51.288;12.068;2022-12-07T07:23:00;100120.03;;;2.27;74.10
58471;BME280;44258;51.288;12.068;2022-12-07T07:25:28;100118.25;;;2.27;74.10
58471;BME280;44258;51.288;12.068;2022-12-07T07:27:55;100119.84;;;2.35;74.31
58471;BME280;44258;51.288;12.068;2022-12-07T07:30:22;100125.88;;;2.41;73.62
58471;BME280;44258;51.288;12.068;2022-12-07T07:32:50;100124.88;;;2.45;73.63
58471;BME280;44258;51.288;12.068;2022-12-07T07:35:16;100128.22;;;2.52;73.37
58471;BME280;44258;51.288;12.068;2022-12-07T07:37:43;100127.72;;;2.38;73.93
58471;BME280;44258;51.288;12.068;2022-12-07T07:40:10;100129.25;;;2.46;74.11
58471;BME280;44258;51.288;12.068;2022-12-07T07:42:41;100135.28;;;2.53;73.84
58471;BME280;44258;51.288;12.068;2022-12-07T07:45:08;100129.38;;;2.42;74.01
58471;BME280;44258;51.288;12.068;2022-12-07T07:47:35;100128.19;;;2.53;73.79
58471;BME280;44258;51.288;12.068;2022-12-07T07:50:02;100129.03;;;2.56;73.82
58471;BME280;44258;51.288;12.068;2022-12-07T07:52:30;100122.59;;;2.64;73.72
58471;BME280;44258;51.288;12.068;2022-12-07T07:54:57;100128.00;;;2.61;73.73
58471;BME280;44258;51.288;12.068;2022-12-07T07:57:24;100136.53;;;2.72;73.48
58471;BME280;44258;51.288;12.068;2022-12-07T07:59:52;100134.66;;;2.76;73.57
58471;BME280;44258;51.288;12.068;2022-12-07T08:02:20;100134.47;;;2.84;73.13
58471;BME280;44258;51.288;12.068;2022-12-07T08:04:47;100137.16;;;2.82;73.00
58471;BME280;44258;51.288;12.068;2022-12-07T08:07:14;100139.69;;;2.87;72.84
58471;BME280;44258;51.288;12.068;2022-12-07T08:09:41;100136.13;;;2.88;73.03
58471;BME280;44258;51.288;12.068;2022-12-07T08:12:11;100140.91;;;2.75;73.56
58471;BME280;44258;51.288;12.068;2022-12-07T08:14:37;100140.78;;;2.80;73.32
58471;BME280;44258;51.288;12.068;2022-12-07T08:17:05;100142.25;;;2.90;73.20
58471;BME280;44258;51.288;12.068;2022-12-07T08:19:33;100133.84;;;3.05;72.91
58471;BME280;44258;51.288;12.068;2022-12-07T08:21:59;100142.56;;;3.10;73.05
58471;BME280;44258;51.288;12.068;2022-12-07T08:24:27;100150.38;;;3.17;72.85
58471;BME280;44258;51.288;12.068;2022-12-07T08:26:53;100141.44;;;3.19;72.69
58471;BME280;44258;51.288;12.068;2022-12-07T08:29:20;100128.28;;;3.15;73.08
58471;BME280;44258;51.288;12.068;2022-12-07T08:31:47;100127.06;;;3.26;72.81
58471;BME280;44258;51.288;12.068;2022-12-07T08:34:15;100123.47;;;3.27;73.12
58471;BME280;44258;51.288;12.068;2022-12-07T08:36:42;100126.06;;;3.30;73.00
58471;BME280;44258;51.288;12.068;2022-12-07T08:39:09;100127.34;;;3.48;72.66
58471;BME280;44258;51.288;12.068;2022-12-07T08:41:35;100128.00;;;3.55;72.36
58471;BME280;44258;51.288;12.068;2022-12-07T08:44:02;100139.91;;;3.71;71.76
58471;BME280;44258;51.288;12.068;2022-12-07T08:46:32;100139.94;;;3.70;71.93
58471;BME280;44258;51.288;12.068;2022-12-07T08:49:04;100131.72;;;3.79;71.66
58471;BME280;44258;51.288;12.068;2022-12-07T08:51:34;100135.69;;;3.64;72.29
58471;BME280;44258;51.288;12.068;2022-12-07T08:54:04;100143.41;;;3.73;71.82
58471;BME280;44258;51.288;12.068;2022-12-07T08:56:34;100127.63;;;3.67;71.74
58471;BME280;44258;51.288;12.068;2022-12-07T08:59:01;100137.22;;;3.73;72.03
58471;BME280;44258;51.288;12.068;2022-12-07T09:01:28;100137.72;;;3.84;71.54
58471;BME280;44258;51.288;12.068;2022-12-07T09:03:55;100139.69;;;3.79;72.07
58471;BME280;44258;51.288;12.068;2022-12-07T09:06:21;100147.75;;;3.76;72.13
58471;BME280;44258;51.288;12.068;2022-12-07T09:08:54;100133.81;;;3.68;72.63
58471;BME280;44258;51.288;12.068;2022-12-07T09:11:22;100137.16;;;3.75;72.15
58471;BME280;44258;51.288;12.068;2022-12-07T09:13:48;100140.53;;;3.80;72.19
58471;BME280;44258;51.288;12.068;2022-12-07T09:16:15;100143.97;;;3.55;73.34
58471;BME280;44258;51.288;12.068;2022-12-07T09:18:42;100151.78;;;3.60;73.44
58471;BME280;44258;51.288;12.068;2022-12-07T09:21:09;100152.44;;;3.68;72.81
58471;BME280;44258;51.288;12.068;2022-12-07T09:23:35;100151.06;;;3.83;72.26
58471;BME280;44258;51.288;12.068;2022-12-07T09:26:07;100143.00;;;3.86;72.55
58471;BME280;44258;51.288;12.068;2022-12-07T09:28:34;100145.31;;;3.97;71.83
58471;BME280;44258;51.288;12.068;2022-12-07T09:31:02;100144.63;;;3.91;72.02
58471;BME280;44258;51.288;12.068;2022-12-07T09:33:31;100141.84;;;3.95;71.84
58471;BME280;44258;51.288;12.068;2022-12-07T09:35:58;100139.91;;;4.00;71.63
58471;BME280;44258;51.288;12.068;2022-12-07T09:38:24;100124.66;;;4.05;71.55
58471;BME280;44258;51.288;12.068;2022-12-07T09:40:52;100134.19;;;4.12;71.50
58471;BME280;44258;51.288;12.068;2022-12-07T09:43:23;100124.34;;;4.16;71.10
58471;BME280;44258;51.288;12.068;2022-12-07T09:45:52;100125.81;;;4.24;70.99
58471;BME280;44258;51.288;12.068;2022-12-07T09:48:22;100120.69;;;4.18;70.96
58471;BME280;44258;51.288;12.068;2022-12-07T09:50:54;100118.94;;;4.17;71.25
58471;BME280;44258;51.288;12.068;2022-12-07T09:53:26;100116.06;;;4.23;71.06
58471;BME280;44258;51.288;12.068;2022-12-07T09:55:53;100117.63;;;4.04;72.00
58471;BME280;44258;51.288;12.068;2022-12-07T09:58:24;100120.69;;;3.91;72.75
58471;BME280;44258;51.288;12.068;2022-12-07T10:00:54;100101.91;;;3.96;72.30
58471;BME280;44258;51.288;12.068;2022-12-07T10:03:22;100110.53;;;4.03;71.92
58471;BME280;44258;51.288;12.068;2022-12-07T10:05:50;100116.09;;;3.95;71.52
58471;BME280;44258;51.288;12.068;2022-12-07T10:08:17;100111.41;;;4.03;71.32
58471;BME280;44258;51.288;12.068;2022-12-07T10:10:46;100110.13;;;4.15;71.34
58471;BME280;44258;51.288;12.068;2022-12-07T10:13:19;100115.25;;;4.21;71.17
58471;BME280;44258;51.288;12.068;2022-12-07T10:15:52;100120.31;;;4.29;70.54
58471;BME280;44258;51.288;12.068;2022-12-07T10:18:26;100109.56;;;4.59;70.07
58471;BME280;44258;51.288;12.068;2022-12-07T10:21:02;100105.09;;;4.34;70.49
58471;BME280;44258;51.288;12.068;2022-12-07T10:23:29;100111.44;;;4.55;69.93
58471;BME280;44258;51.288;12.068;2022-12-07T10:25:56;100112.44;;;4.52;70.42
58471;BME280;44258;51.288;12.068;2022-12-07T10:28:22;100108.72;;;4.82;69.72
58471;BME280;44258;51.288;12.068;2022-12-07T10:30:56;100109.94;;;4.73;69.63
58471;BME280;44258;51.288;12.068;2022-12-07T10:33:29;100107.38;;;4.70;69.82
58471;BME280;44258;51.288;12.068;2022-12-07T10:35:57;100106.50;;;4.69;69.59
58471;BME280;44258;51.288;12.068;2022-12-07T10:38:25;100110.03;;;4.70;69.97
58471;BME280;44258;51.288;12.068;2022-12-07T10:41:03;100100.03;;;4.51;69.58
58471;BME280;44258;51.288;12.068;2022-12-07T10:43:30;100102.09;;;4.68;69.65
58471;BME280;44258;51.288;12.068;2022-12-07T10:46:24;100098.94;;;4.82;69.52
58471;BME280;44258;51.288;12.068;2022-12-07T10:49:02;100082.59;;;4.93;68.74
58471;BME280;44258;51.288;12.068;2022-12-07T10:51:37;100094.63;;;5.03;68.83
58471;BME280;44258;51.288;12.068;2022-12-07T10:54:12;100086.88;;;4.97;68.97
58471;BME280;44258;51.288;12.068;2022-12-07T10:56:57;100090.00;;;5.08;68.81
58471;BME280;44258;51.288;12.068;2022-12-07T10:59:52;100082.47;;;5.20;68.46
58471;BME280;44258;51.288;12.068;2022-12-07T11:02:40;100082.34;;;4.99;68.56
58471;BME280;44258;51.288;12.068;2022-12-07T11:05:18;100086.34;;;4.87;68.62
58471;BME280;44258;51.288;12.068;2022-12-07T11:07:57;100087.09;;;4.91;68.64
58471;BME280;44258;51.288;12.068;2022-12-07T11:10:32;100087.56;;;5.02;68.35
58471;BME280;44258;51.288;12.068;2022-12-07T11:13:18;100073.22;;;5.05;67.98
58471;BME280;44258;51.288;12.068;2022-12-07T11:15:59;100077.19;;;5.18;67.45
58471;BME280;44258;51.288;12.068;2022-12-07T11:18:33;100074.25;;;5.26;67.55
58471;BME280;44258;51.288;12.068;2022-12-07T11:21:08;100081.88;;;5.35;67.01
58471;BME280;44258;51.288;12.068;2022-12-07T11:23:45;100082.53;;;5.18;67.25
58471;BME280;44258;51.288;12.068;2022-12-07T11:26:22;100085.25;;;4.93;67.38
58471;BME280;44258;51.288;12.068;2022-12-07T11:29:03;100083.94;;;4.80;67.42
58471;BME280;44258;51.288;12.068;2022-12-07T11:31:41;100086.59;;;4.80;67.38
58471;BME280;44258;51.288;12.068;2022-12-07T11:34:15;100084.44;;;5.14;66.64
58471;BME280;44258;51.288;12.068;2022-12-07T11:36:49;100083.84;;;4.83;66.64
58471;BME280;44258;51.288;12.068;2022-12-07T11:39:24;100082.09;;;4.82;66.55
58471;BME280;44258;51.288;12.068;2022-12-07T11:41:55;100088.69;;;4.71;67.47
58471;BME280;44258;51.288;12.068;2022-12-07T11:44:29;100089.81;;;4.64;68.17
58471;BME280;44258;51.288;12.068;2022-12-07T11:47:00;100082.59;;;4.43;67.36
58471;BME280;44258;51.288;12.068;2022-12-07T11:49:40;100085.47;;;4.62;67.79
58471;BME280;44258;51.288;12.068;2022-12-07T11:52:16;100066.75;;;4.88;66.76
58471;BME280;44258;51.288;12.068;2022-12-07T11:54:45;100082.22;;;4.79;66.76
58471;BME280;44258;51.288;12.068;2022-12-07T11:57:17;100083.06;;;4.79;66.97
58471;BME280;44258;51.288;12.068;2022-12-07T11:59:49;100073.66;;;4.94;66.41
58471;BME280;44258;51.288;12.068;2022-12-07T12:02:22;100074.34;;;4.99;65.81
58471;BME280;44258;51.288;12.068;2022-12-07T12:04:55;100070.25;;;5.14;65.65
58471;BME280;44258;51.288;12.068;2022-12-07T12:07:23;100075.78;;;5.31;65.35
58471;BME280;44258;51.288;12.068;2022-12-07T12:09:54;100067.91;;;5.05;65.35
58471;BME280;44258;51.288;12.068;2022-12-07T12:12:41;100076.44;;;4.91;65.55
58471;BME280;44258;51.288;12.068;2022-12-07T12:15:24;100068.38;;;4.92;65.81
58471;BME280;44258;51.288;12.068;2022-12-07T12:18:12;100067.00;;;5.06;64.81
58471;BME280;44258;51.288;12.068;2022-12-07T12:20:48;100063.34;;;5.08;64.42
58471;BME280;44258;51.288;12.068;2022-12-07T12:23:19;100054.59;;;4.81;64.86
58471;BME280;44258;51.288;12.068;2022-12-07T12:25:48;100057.47;;;4.99;64.61
58471;BME280;44258;51.288;12.068;2022-12-07T12:28:22;100053.25;;;5.17;64.45
58471;BME280;44258;51.288;12.068;2022-12-07T12:31:05;100060.91;;;5.26;64.11
58471;BME280;44258;51.288;12.068;2022-12-07T12:33:33;100052.78;;;5.29;63.96
58471;BME280;44258;51.288;12.068;2022-12-07T12:36:20;100053.72;;;5.28;64.01
58471;BME280;44258;51.288;12.068;2022-12-07T12:38:50;100056.97;;;5.36;64.46
58471;BME280;44258;51.288;12.068;2022-12-07T12:41:55;100064.06;;;5.36;64.35
58471;BME280;44258;51.288;12.068;2022-12-07T12:44:42;100054.06;;;5.42;64.35
58471;BME280;44258;51.288;12.068;2022-12-07T12:47:53;100046.59;;;5.28;64.90
58471;BME280;44258;51.288;12.068;2022-12-07T12:50:24;100054.44;;;5.09;65.01
58471;BME280;44258;51.288;12.068;2022-12-07T12:56:21;100046.31;;;5.12;64.62
58471;BME280;44258;51.288;12.068;2022-12-07T12:59:24;100047.19;;;4.89;63.99
58471;BME280;44258;51.288;12.068;2022-12-07T13:01:51;100041.72;;;4.92;63.80
58471;BME280;44258;51.288;12.068;2022-12-07T13:04:30;100038.19;;;4.92;64.17
58471;BME280;44258;51.288;12.068;2022-12-07T13:07:00;100043.06;;;5.04;64.09
58471;BME280;44258;51.288;12.068;2022-12-07T13:09:31;100038.59;;;5.05;63.66
58471;BME280;44258;51.288;12.068;2022-12-07T13:12:04;100040.44;;;5.26;63.26
58471;BME280;44258;51.288;12.068;2022-12-07T13:14:56;100037.06;;;4.99;63.70